Time;durP1;ratioP1;P1;durP2;ratioP2;P2;SDS_P1;SDS_P2;PMS_P1;PMS_P2;Temp;Humidity;BMP_temperature;BMP_pressure;BME280_temperature;BME280_humidity;BME280_pressure;Samples;Min_cycle;Max_cycle;Signal;HPM_P1;HPM_P2
2022/10/23 00:00:04;;;;;;;21.65;8.57;;;;;;;;;;4918129;29;20559;-76
2022/10/23 00:02:30;;;;;;;21.90;9.05;;;;;;;;;;4917654;29;20055;-76
2022/10/23 00:04:56;;;;;;;22.13;9.48;;;;;;;;;;4917915;29;20051;-76
2022/10/23 00:07:22;;;;;;;21.77;8.45;;;;;;;;;;4918605;29;20063;-76
2022/10/23 00:09:48;;;;;;;19.05;8.25;;;;;;;;;;4917945;29;20040;-76
2022/10/23 00:12:14;;;;;;;14.70;7.90;;;;;;;;;;4917777;29;20051;-76
2022/10/23 00:14:40;;;;;;;20.02;7.50;;;;;;;;;;4917568;29;20119;-76
2022/10/23 00:17:06;;;;;;;23.20;8.65;;;;;;;;;;4917833;29;20040;-76
2022/10/23 00:19:32;;;;;;;19.38;7.88;;;;;;;;;;4917224;29;20180;-76
2022/10/23 00:21:58;;;;;;;21.63;8.55;;;;;;;;;;4917788;29;20044;-76
2022/10/23 00:24:25;;;;;;;28.90;8.40;;;;;;;;;;4917571;29;20044;-76
2022/10/23 00:26:51;;;;;;;21.70;8.52;;;;;;;;;;4917459;29;20088;-76
2022/10/23 00:29:17;;;;;;;25.42;8.95;;;;;;;;;;4917912;29;20052;-76
2022/10/23 00:31:43;;;;;;;19.80;8.30;;;;;;;;;;4920832;29;20044;-76
2022/10/23 00:34:09;;;;;;;17.02;8.95;;;;;;;;;;4920950;29;20139;-76
2022/10/23 00:36:36;;;;;;;21.92;9.25;;;;;;;;;;4921002;29;20044;-76
2022/10/23 00:39:02;;;;;;;18.13;9.23;;;;;;;;;;4920860;29;20051;-76
2022/10/23 00:41:31;;;;;;;24.90;9.75;;;;;;;;;;4920595;29;20055;-76
2022/10/23 00:43:59;;;;;;;23.88;9.82;;;;;;;;;;4920556;29;20522;-76
2022/10/23 00:46:25;;;;;;;20.45;8.90;;;;;;;;;;4920864;29;20047;-77
2022/10/23 00:48:51;;;;;;;26.15;8.68;;;;;;;;;;4920982;29;20123;-76
2022/10/23 00:51:18;;;;;;;23.33;8.90;;;;;;;;;;4920903;29;20045;-76
2022/10/23 00:53:45;;;;;;;23.30;9.20;;;;;;;;;;4920703;29;20051;-76
2022/10/23 00:56:11;;;;;;;22.42;8.60;;;;;;;;;;4920580;29;20044;-75
2022/10/23 00:58:37;;;;;;;18.75;8.48;;;;;;;;;;4920939;29;20076;-76
2022/10/23 01:01:15;;;;;;;19.48;8.93;;;;;;;;;;4920586;29;20044;-76
2022/10/23 01:03:41;;;;;;;17.52;8.55;;;;;;;;;;4921001;29;20067;-76
2022/10/23 01:06:13;;;;;;;25.85;9.30;;;;;;;;;;4920241;29;20103;-76
2022/10/23 01:08:39;;;;;;;19.80;8.68;;;;;;;;;;4920701;29;20072;-76
2022/10/23 01:11:10;;;;;;;15.32;9.13;;;;;;;;;;4920266;29;20048;-76
2022/10/23 01:13:53;;;;;;;24.40;8.43;;;;;;;;;;4920627;29;20112;-76
2022/10/23 01:16:38;;;;;;;20.73;9.68;;;;;;;;;;4920555;29;20040;-76
2022/10/23 01:19:04;;;;;;;21.83;8.93;;;;;;;;;;4920145;29;20048;-76
2022/10/23 01:21:35;;;;;;;21.65;8.73;;;;;;;;;;4919973;29;20202;-76
2022/10/23 01:24:12;;;;;;;23.63;8.68;;;;;;;;;;4920097;29;20055;-76
2022/10/23 01:27:16;;;;;;;26.52;8.25;;;;;;;;;;4919899;29;20043;-76
2022/10/23 01:29:45;;;;;;;17.08;8.57;;;;;;;;;;4879999;29;20069;-76
2022/10/23 01:32:22;;;;;;;20.23;8.25;;;;;;;;;;4880424;29;20056;-76
2022/10/23 01:34:51;;;;;;;22.35;9.10;;;;;;;;;;4903032;29;20138;-76
2022/10/23 01:37:37;;;;;;;22.98;9.65;;;;;;;;;;4919678;29;20051;-76
2022/10/23 01:40:05;;;;;;;21.10;9.73;;;;;;;;;;4899154;29;20052;-76
2022/10/23 01:42:35;;;;;;;25.73;9.80;;;;;;;;;;4919279;29;20048;-76
2022/10/23 01:45:21;;;;;;;26.50;9.98;;;;;;;;;;4919912;29;20040;-75
2022/10/23 01:47:49;;;;;;;26.88;10.30;;;;;;;;;;4919703;29;20048;-76
2022/10/23 01:50:17;;;;;;;18.38;9.48;;;;;;;;;;4919503;29;20048;-76
2022/10/23 01:52:43;;;;;;;20.73;9.48;;;;;;;;;;4919773;29;20040;-76
2022/10/23 01:55:10;;;;;;;26.00;9.15;;;;;;;;;;4919475;29;20503;-76
2022/10/23 01:57:37;;;;;;;17.50;8.63;;;;;;;;;;4919586;29;20040;-76
2022/10/23 02:00:07;;;;;;;18.08;9.60;;;;;;;;;;4919685;29;20571;-76
2022/10/23 02:02:35;;;;;;;12.60;8.20;;;;;;;;;;4919423;29;20054;-76
2022/10/23 02:05:05;;;;;;;24.70;9.13;;;;;;;;;;4919425;29;20131;-76
2022/10/23 02:07:32;;;;;;;16.15;7.75;;;;;;;;;;4918836;29;20503;-76
2022/10/23 02:09:58;;;;;;;21.23;8.55;;;;;;;;;;4918925;29;20423;-76
2022/10/23 02:12:32;;;;;;;20.00;7.93;;;;;;;;;;4919225;29;20080;-76
2022/10/23 02:15:03;;;;;;;18.30;8.18;;;;;;;;;;4919371;29;20055;-76
2022/10/23 02:17:35;;;;;;;16.20;7.70;;;;;;;;;;4919535;29;20496;-76
2022/10/23 02:20:16;;;;;;;12.88;8.30;;;;;;;;;;4918945;29;20119;-76
2022/10/23 02:22:48;;;;;;;18.27;8.13;;;;;;;;;;4933479;29;20586;-76
2022/10/23 02:25:19;;;;;;;16.10;7.55;;;;;;;;;;4918942;29;20496;-76
2022/10/23 02:27:45;;;;;;;;;;;;;;;;;;4919496;29;20058;-77
2022/10/23 02:30:13;;;;;;;15.98;8.20;;;;;;;;;;4918739;29;20366;-76
2022/10/23 02:32:41;;;;;;;13.70;8.10;;;;;;;;;;4918907;29;20043;-76
2022/10/23 02:35:07;;;;;;;16.05;7.97;;;;;;;;;;4919000;29;20094;-76
2022/10/23 02:37:33;;;;;;;16.67;9.65;;;;;;;;;;4918831;29;20059;-76
2022/10/23 02:40:00;;;;;;;13.88;7.20;;;;;;;;;;4918433;29;20044;-76
2022/10/23 02:42:31;;;;;;;16.70;8.15;;;;;;;;;;4919420;29;20047;-76
2022/10/23 02:45:10;;;;;;;19.70;7.43;;;;;;;;;;4918437;29;20040;-76
2022/10/23 02:47:48;;;;;;;18.08;7.88;;;;;;;;;;4918408;29;20036;-76
2022/10/23 02:50:33;;;;;;;21.80;8.07;;;;;;;;;;4918737;29;20065;-76
2022/10/23 02:53:05;;;;;;;18.90;8.60;;;;;;;;;;4918430;29;20178;-76
2022/10/23 02:55:40;;;;;;;18.90;8.25;;;;;;;;;;4918438;29;20055;-76
2022/10/23 02:58:09;;;;;;;17.33;7.63;;;;;;;;;;4918609;29;20043;-75
2022/10/23 03:00:37;;;;;;;17.08;7.32;;;;;;;;;;4918505;29;20498;-77
2022/10/23 03:03:10;;;;;;;18.70;8.23;;;;;;;;;;4918520;29;20122;-76
2022/10/23 03:05:37;;;;;;;22.73;7.72;;;;;;;;;;4918246;29;20036;-76
2022/10/23 03:08:04;;;;;;;17.33;7.28;;;;;;;;;;4917747;29;20044;-76
2022/10/23 03:10:31;;;;;;;22.73;8.05;;;;;;;;;;4916118;29;20057;-76
2022/10/23 03:12:57;;;;;;;23.13;8.60;;;;;;;;;;4916926;29;20043;-76
2022/10/23 03:15:23;;;;;;;20.55;8.13;;;;;;;;;;4917644;29;20043;-76
2022/10/23 03:17:49;;;;;;;21.45;8.77;;;;;;;;;;4917153;29;20495;-80
2022/10/23 03:20:15;;;;;;;17.38;8.35;;;;;;;;;;4917387;29;20538;-76
2022/10/23 03:22:41;;;;;;;20.92;8.05;;;;;;;;;;4918191;29;20440;-76
2022/10/23 03:25:08;;;;;;;16.88;7.95;;;;;;;;;;4917791;29;20047;-75
2022/10/23 03:27:34;;;;;;;14.90;7.72;;;;;;;;;;4917971;29;20043;-76
2022/10/23 03:30:00;;;;;;;21.55;8.10;;;;;;;;;;4918337;29;20071;-76
2022/10/23 03:32:26;;;;;;;20.73;8.10;;;;;;;;;;4918153;29;20131;-76
2022/10/23 03:34:52;;;;;;;17.08;7.22;;;;;;;;;;4918195;29;20036;-75
2022/10/23 03:37:18;;;;;;;15.20;7.88;;;;;;;;;;4917838;29;20495;-76
2022/10/23 03:39:45;;;;;;;15.35;7.22;;;;;;;;;;4917652;29;20044;-76
2022/10/23 03:42:11;;;;;;;18.38;8.25;;;;;;;;;;4918229;29;20055;-76
2022/10/23 03:44:37;;;;;;;15.40;8.20;;;;;;;;;;4917539;29;20403;-76
2022/10/23 03:47:03;;;;;;;16.05;8.32;;;;;;;;;;4918064;29;20079;-76
2022/10/23 03:49:29;;;;;;;19.67;9.15;;;;;;;;;;4917267;29;20044;-77
2022/10/23 03:51:55;;;;;;;30.30;9.48;;;;;;;;;;4917996;29;20102;-75
2022/10/23 03:54:23;;;;;;;18.63;8.75;;;;;;;;;;4918046;29;20044;-77
2022/10/23 03:56:50;;;;;;;24.20;8.95;;;;;;;;;;4918321;29;20054;-76
2022/10/23 03:59:16;;;;;;;25.40;10.52;;;;;;;;;;4916639;29;20044;-77
2022/10/23 04:01:42;;;;;;;20.70;10.10;;;;;;;;;;4916682;29;20052;-76
2022/10/23 04:04:09;;;;;;;23.63;9.10;;;;;;;;;;4916622;29;20078;-76
2022/10/23 04:06:35;;;;;;;18.10;9.13;;;;;;;;;;4920819;29;20072;-76
2022/10/23 04:09:01;;;;;;;23.40;8.57;;;;;;;;;;4921917;29;20123;-77
2022/10/23 04:11:27;;;;;;;17.75;8.90;;;;;;;;;;4922136;29;20052;-76
2022/10/23 04:13:53;;;;;;;15.90;8.65;;;;;;;;;;4921509;29;20068;-76
2022/10/23 04:16:19;;;;;;;22.20;8.68;;;;;;;;;;4921687;29;20066;-76
2022/10/23 04:18:46;;;;;;;23.40;10.40;;;;;;;;;;4922128;29;20052;-77
2022/10/23 04:21:12;;;;;;;21.85;9.18;;;;;;;;;;4921357;29;20048;-76
2022/10/23 04:23:38;;;;;;;17.88;8.60;;;;;;;;;;4921605;29;20047;-76
2022/10/23 04:26:04;;;;;;;19.23;8.20;;;;;;;;;;4921399;29;20044;-76
2022/10/23 04:28:30;;;;;;;13.90;8.30;;;;;;;;;;4921512;29;20044;-76
2022/10/23 04:30:56;;;;;;;23.70;8.57;;;;;;;;;;4921015;29;20436;-76
2022/10/23 04:33:22;;;;;;;15.68;8.20;;;;;;;;;;4921277;29;20135;-76
2022/10/23 04:35:48;;;;;;;21.55;8.82;;;;;;;;;;4921260;29;20107;-76
2022/10/23 04:38:15;;;;;;;20.92;9.07;;;;;;;;;;4921874;29;20041;-76
2022/10/23 04:40:41;;;;;;;21.92;8.48;;;;;;;;;;4920688;29;20463;-76
2022/10/23 04:43:07;;;;;;;18.52;8.70;;;;;;;;;;4920953;29;20071;-77
2022/10/23 04:45:33;;;;;;;22.50;8.63;;;;;;;;;;4920864;29;20040;-76
2022/10/23 04:47:59;;;;;;;23.77;9.93;;;;;;;;;;4920886;29;20071;-76
2022/10/23 04:50:25;;;;;;;26.65;10.15;;;;;;;;;;4920904;29;20119;-76
2022/10/23 04:52:55;;;;;;;25.40;10.27;;;;;;;;;;4921219;29;20551;-76
2022/10/23 04:55:21;;;;;;;27.73;9.73;;;;;;;;;;4920550;29;20051;-76
2022/10/23 04:57:47;;;;;;;27.58;11.13;;;;;;;;;;4920974;29;20538;-76
2022/10/23 05:00:15;;;;;;;22.85;10.77;;;;;;;;;;4920691;29;20044;-76
2022/10/23 05:02:41;;;;;;;30.52;11.50;;;;;;;;;;4920352;29;20063;-76
2022/10/23 05:05:07;;;;;;;41.97;13.13;;;;;;;;;;4920273;29;20039;-76
2022/10/23 05:07:34;;;;;;;34.33;12.95;;;;;;;;;;4920238;29;20377;-76
2022/10/23 05:10:00;;;;;;;32.80;13.43;;;;;;;;;;4920356;29;20531;-76
2022/10/23 05:12:26;;;;;;;29.95;11.80;;;;;;;;;;4920070;29;20365;-76
2022/10/23 05:14:53;;;;;;;38.30;12.95;;;;;;;;;;4920467;29;20048;-76
2022/10/23 05:17:25;;;;;;;31.52;11.55;;;;;;;;;;4920081;29;20040;-76
2022/10/23 05:19:57;;;;;;;35.92;13.00;;;;;;;;;;4920517;29;20052;-76
2022/10/23 05:22:25;;;;;;;34.53;13.55;;;;;;;;;;4920263;29;20044;-76
2022/10/23 05:24:51;;;;;;;35.40;13.27;;;;;;;;;;4920123;29;20135;-76
2022/10/23 05:27:17;;;;;;;30.75;12.57;;;;;;;;;;4920695;29;20488;-77
2022/10/23 05:29:44;;;;;;;25.75;11.82;;;;;;;;;;4919516;29;20051;-76
2022/10/23 05:32:12;;;;;;;28.30;12.18;;;;;;;;;;4919756;29;20044;-76
2022/10/23 05:34:38;;;;;;;27.92;13.77;;;;;;;;;;4920124;29;20044;-76
2022/10/23 05:37:06;;;;;;;28.65;11.73;;;;;;;;;;4919909;29;20048;-76
2022/10/23 05:39:32;;;;;;;29.75;11.70;;;;;;;;;;4919501;29;20503;-76
2022/10/23 05:41:58;;;;;;;34.92;13.55;;;;;;;;;;4920228;29;20059;-76
2022/10/23 05:44:24;;;;;;;40.63;12.88;;;;;;;;;;4920151;29;20519;-76
2022/10/23 05:46:50;;;;;;;33.53;12.23;;;;;;;;;;4920197;29;20048;-77
2022/10/23 05:49:16;;;;;;;25.98;11.35;;;;;;;;;;4920440;29;20051;-76
2022/10/23 05:51:43;;;;;;;32.47;10.68;;;;;;;;;;4919878;29;20491;-76
2022/10/23 05:54:09;;;;;;;29.05;11.15;;;;;;;;;;4919674;29;20044;-77
2022/10/23 05:56:35;;;;;;;26.50;11.15;;;;;;;;;;4919830;29;20071;-76
2022/10/23 05:59:02;;;;;;;31.98;11.20;;;;;;;;;;4920087;29;20044;-76
2022/10/23 06:01:28;;;;;;;27.38;10.90;;;;;;;;;;4920134;29;20135;-77
2022/10/23 06:03:54;;;;;;;27.85;11.00;;;;;;;;;;4919483;29;20040;-76
2022/10/23 06:06:20;;;;;;;21.88;9.50;;;;;;;;;;4919473;29;20050;-76
2022/10/23 06:08:46;;;;;;;31.50;10.32;;;;;;;;;;4919173;29;20048;-76
2022/10/23 06:11:14;;;;;;;26.13;9.75;;;;;;;;;;4919210;29;20051;-76
2022/10/23 06:13:42;;;;;;;27.05;9.95;;;;;;;;;;4919526;29;20131;-76
2022/10/23 06:16:09;;;;;;;35.03;11.13;;;;;;;;;;4920074;29;20043;-76
2022/10/23 06:18:35;;;;;;;27.35;9.88;;;;;;;;;;4919651;29;20051;-76
2022/10/23 06:21:01;;;;;;;28.65;10.80;;;;;;;;;;4919741;29;20044;-77
2022/10/23 06:23:27;;;;;;;30.58;10.73;;;;;;;;;;4919660;29;20040;-76
2022/10/23 06:25:54;;;;;;;27.95;10.00;;;;;;;;;;4918946;29;20075;-76
2022/10/23 06:28:20;;;;;;;26.92;9.57;;;;;;;;;;4919474;29;20040;-76
2022/10/23 06:30:46;;;;;;;30.10;10.13;;;;;;;;;;4919020;29;20130;-76
2022/10/23 06:33:13;;;;;;;29.98;9.25;;;;;;;;;;4919204;29;20036;-76
2022/10/23 06:35:39;;;;;;;27.38;10.35;;;;;;;;;;4918973;29;20531;-76
2022/10/23 06:38:05;;;;;;;23.63;9.57;;;;;;;;;;4919156;29;20115;-76
2022/10/23 06:40:31;;;;;;;27.00;9.77;;;;;;;;;;4918738;29;20084;-77
2022/10/23 06:42:57;;;;;;;26.35;9.85;;;;;;;;;;4919130;29;20048;-76
2022/10/23 06:45:23;;;;;;;31.90;9.90;;;;;;;;;;4919099;29;20048;-76
2022/10/23 06:47:50;;;;;;;24.70;9.23;;;;;;;;;;4918798;29;20048;-76
2022/10/23 06:50:16;;;;;;;24.67;8.85;;;;;;;;;;4919172;29;20040;-77
2022/10/23 06:52:42;;;;;;;31.55;9.90;;;;;;;;;;4918910;29;20135;-76
2022/10/23 06:55:09;;;;;;;27.20;9.63;;;;;;;;;;4918628;29;20123;-76
2022/10/23 06:57:35;;;;;;;24.83;9.45;;;;;;;;;;4918923;29;20043;-76
2022/10/23 07:00:01;;;;;;;21.77;9.20;;;;;;;;;;4918975;29;20060;-77
2022/10/23 07:02:27;;;;;;;24.45;9.38;;;;;;;;;;4919128;29;20048;-76
2022/10/23 07:04:53;;;;;;;25.48;10.50;;;;;;;;;;4918535;29;20623;-76
2022/10/23 07:07:19;;;;;;;29.13;9.88;;;;;;;;;;4918778;29;20040;-76
2022/10/23 07:09:45;;;;;;;30.25;10.18;;;;;;;;;;4918538;29;20420;-76
2022/10/23 07:12:11;;;;;;;30.48;10.90;;;;;;;;;;4918651;29;20040;-77
2022/10/23 07:14:37;;;;;;;28.13;9.95;;;;;;;;;;4918507;29;20126;-76
2022/10/23 07:17:03;;;;;;;30.98;10.85;;;;;;;;;;4919126;29;20032;-76
2022/10/23 07:19:30;;;;;;;30.10;11.38;;;;;;;;;;4918327;29;20104;-76
2022/10/23 07:21:56;;;;;;;26.73;11.10;;;;;;;;;;4919150;29;20107;-77
2022/10/23 07:24:22;;;;;;;28.45;11.23;;;;;;;;;;4918692;29;20122;-76
2022/10/23 07:26:48;;;;;;;27.70;10.70;;;;;;;;;;4918569;29;20040;-76
2022/10/23 07:29:14;;;;;;;30.90;11.35;;;;;;;;;;4918908;29;20044;-77
2022/10/23 07:31:40;;;;;;;28.63;11.23;;;;;;;;;;4918978;29;20082;-76
2022/10/23 07:34:06;;;;;;;33.50;11.48;;;;;;;;;;4918395;29;20140;-76
2022/10/23 07:36:32;;;;;;;26.48;11.00;;;;;;;;;;4918171;29;20500;-76
2022/10/23 07:38:58;;;;;;;29.73;11.32;;;;;;;;;;4918536;29;20126;-76
2022/10/23 07:41:25;;;;;;;29.50;11.40;;;;;;;;;;4921061;29;20119;-76
2022/10/23 07:43:51;;;;;;;34.88;11.52;;;;;;;;;;4922415;29;20056;-76
2022/10/23 07:46:17;;;;;;;36.58;11.35;;;;;;;;;;4922172;29;20040;-76
2022/10/23 07:48:43;;;;;;;32.40;10.90;;;;;;;;;;4922120;29;20078;-76
2022/10/23 07:51:14;;;;;;;25.35;10.10;;;;;;;;;;4921911;29;20040;-76
2022/10/23 07:53:40;;;;;;;32.40;11.77;;;;;;;;;;4921492;29;20048;-76
2022/10/23 07:56:22;;;;;;;38.25;11.32;;;;;;;;;;4921695;29;20043;-76
2022/10/23 07:58:52;;;;;;;33.85;10.20;;;;;;;;;;4922211;29;20496;-76
2022/10/23 08:01:19;;;;;;;25.85;11.35;;;;;;;;;;4922035;29;20044;-76
2022/10/23 08:03:46;;;;;;;29.35;11.07;;;;;;;;;;4921588;29;20103;-76
2022/10/23 08:06:12;;;;;;;33.58;10.25;;;;;;;;;;4921643;29;20032;-76
2022/10/23 08:08:38;;;;;;;26.92;9.85;;;;;;;;;;4936448;29;20403;-76
2022/10/23 08:11:04;;;;;;;27.83;10.43;;;;;;;;;;4921084;29;20123;-77
2022/10/23 08:13:30;;;;;;;27.63;10.57;;;;;;;;;;4921602;29;20040;-77
2022/10/23 08:15:57;;;;;;;31.67;10.15;;;;;;;;;;4921444;29;20570;-76
2022/10/23 08:18:23;;;;;;;34.80;11.18;;;;;;;;;;4921115;29;20048;-76
2022/10/23 08:20:51;;;;;;;29.13;10.60;;;;;;;;;;4921401;29;20086;-77
2022/10/23 08:23:17;;;;;;;30.30;11.40;;;;;;;;;;4921319;29;20175;-77
2022/10/23 08:25:44;;;;;;;25.92;10.93;;;;;;;;;;4920799;29;20036;-77
2022/10/23 08:28:10;;;;;;;26.08;9.43;;;;;;;;;;4920981;29;20123;-76
2022/10/23 08:30:36;;;;;;;23.63;10.90;;;;;;;;;;4921145;29;20048;-76
2022/10/23 08:33:03;;;;;;;30.40;11.48;;;;;;;;;;4921116;29;20138;-76
2022/10/23 08:35:29;;;;;;;28.70;11.02;;;;;;;;;;4921168;29;20051;-76
2022/10/23 08:37:55;;;;;;;33.25;10.18;;;;;;;;;;4921063;29;20031;-76
2022/10/23 08:40:22;;;;;;;25.35;9.82;;;;;;;;;;4920439;29;20396;-76
2022/10/23 08:42:57;;;;;;;25.73;9.38;;;;;;;;;;4920805;29;20048;-76
2022/10/23 08:45:23;;;;;;;25.95;9.15;;;;;;;;;;4920953;29;20083;-76
2022/10/23 08:47:54;;;;;;;26.17;9.95;;;;;;;;;;4920926;29;20044;-77
2022/10/23 08:50:20;;;;;;;;;;;;;;;;;;4921280;29;20044;-76
2022/10/23 08:52:52;;;;;;;25.88;9.15;;;;;;;;;;4920609;29;19922;-77
2022/10/23 08:55:23;;;;;;;25.35;8.73;;;;;;;;;;4919602;29;20050;-76
2022/10/23 08:58:03;;;;;;;24.40;8.50;;;;;;;;;;4921094;29;20074;-76
2022/10/23 09:00:29;;;;;;;25.15;9.85;;;;;;;;;;4920211;29;20182;-76
2022/10/23 09:02:56;;;;;;;27.00;8.30;;;;;;;;;;4917764;29;20084;-77
2022/10/23 09:05:30;;;;;;;21.23;7.78;;;;;;;;;;4931501;29;20044;-76
2022/10/23 09:08:14;;;;;;;17.75;7.45;;;;;;;;;;4901986;29;20040;-76
2022/10/23 09:11:03;;;;;;;21.92;8.23;;;;;;;;;;4901552;29;20036;-77
2022/10/23 09:13:48;;;;;;;23.55;7.95;;;;;;;;;;4925804;29;20107;-77
2022/10/23 09:16:29;;;;;;;23.50;7.47;;;;;;;;;;4919956;29;20040;-76
2022/10/23 09:18:55;;;;;;;27.20;8.57;;;;;;;;;;4920304;29;20052;-77
2022/10/23 09:21:25;;;;;;;25.73;8.23;;;;;;;;;;4919779;29;20471;-77
2022/10/23 09:23:51;;;;;;;25.75;8.82;;;;;;;;;;4920475;29;20059;-76
2022/10/23 09:26:18;;;;;;;20.63;7.13;;;;;;;;;;4919791;29;20546;-77
2022/10/23 09:28:54;;;;;;;23.90;7.50;;;;;;;;;;4920350;29;20201;-77
2022/10/23 09:31:20;;;;;;;21.08;8.23;;;;;;;;;;4907295;29;20040;-76
2022/10/23 09:34:00;;;;;;;25.10;8.00;;;;;;;;;;4919151;29;20143;-80
2022/10/23 09:36:28;;;;;;;20.90;7.95;;;;;;;;;;4917806;29;20123;-78
2022/10/23 09:38:55;;;;;;;22.38;8.25;;;;;;;;;;4919231;29;20055;-77
2022/10/23 09:41:21;;;;;;;17.27;7.15;;;;;;;;;;4918842;29;20060;-79
2022/10/23 09:43:58;;;;;;;25.33;7.93;;;;;;;;;;4917885;29;20044;-79
2022/10/23 09:46:25;;;;;;;23.95;8.50;;;;;;;;;;4919095;29;20054;-79
2022/10/23 09:48:57;;;;;;;26.77;9.02;;;;;;;;;;4918157;29;20055;-76
2022/10/23 09:51:24;;;;;;;15.68;7.75;;;;;;;;;;4918050;29;20538;-80
2022/10/23 09:53:54;;;;;;;22.95;9.13;;;;;;;;;;4918827;29;20067;-79
2022/10/23 09:56:23;;;;;;;16.80;7.55;;;;;;;;;;4917420;29;20096;-78
2022/10/23 09:59:00;;;;;;;22.00;7.38;;;;;;;;;;4918104;29;20059;-78
2022/10/23 10:01:28;;;;;;;21.85;8.40;;;;;;;;;;4917900;29;20166;-77
2022/10/23 10:03:54;;;;;;;20.95;7.30;;;;;;;;;;4931798;29;20036;-78
2022/10/23 10:06:21;;;;;;;18.83;7.30;;;;;;;;;;4918407;29;20365;-78
2022/10/23 10:08:52;;;;;;;20.63;6.57;;;;;;;;;;4914764;29;20118;-79
2022/10/23 10:11:34;;;;;;;20.77;6.25;;;;;;;;;;4918034;29;20040;-80
2022/10/23 10:14:18;;;;;;;15.68;7.00;;;;;;;;;;4899435;29;20048;-81
2022/10/23 10:16:54;;;;;;;17.98;5.82;;;;;;;;;;4910340;29;20048;-81
2022/10/23 10:19:29;;;;;;;17.98;5.97;;;;;;;;;;4933297;29;20040;-80
2022/10/23 10:22:11;;;;;;;16.17;6.03;;;;;;;;;;4917384;29;20036;-79
2022/10/23 10:24:43;;;;;;;19.80;7.10;;;;;;;;;;4931678;29;20126;-79
2022/10/23 10:27:23;;;;;;;18.67;6.35;;;;;;;;;;4917670;29;20066;-80
2022/10/23 10:29:56;;;;;;;22.13;6.95;;;;;;;;;;4907837;29;20055;-78
2022/10/23 10:32:22;;;;;;;18.60;6.32;;;;;;;;;;4916971;29;20487;-79
2022/10/23 10:34:48;;;;;;;16.63;5.57;;;;;;;;;;4917179;29;20051;-80
2022/10/23 10:37:20;;;;;;;20.33;6.07;;;;;;;;;;4916846;29;20040;-81
2022/10/23 10:39:50;;;;;;;22.27;6.03;;;;;;;;;;4918167;29;20517;-80
2022/10/23 10:42:23;;;;;;;16.92;5.40;;;;;;;;;;4917987;29;20060;-79
2022/10/23 10:45:08;;;;;;;22.48;5.60;;;;;;;;;;4907156;29;20578;-80
2022/10/23 10:47:37;;;;;;;16.80;5.38;;;;;;;;;;4917424;29;20036;-78
2022/10/23 10:50:22;;;;;;;19.65;5.30;;;;;;;;;;4931833;29;20130;-79
2022/10/23 10:52:57;;;;;;;19.55;5.95;;;;;;;;;;4917440;29;20040;-78
2022/10/23 10:55:24;;;;;;;17.35;5.53;;;;;;;;;;4917022;29;20047;-78
2022/10/23 10:57:55;;;;;;;18.35;5.88;;;;;;;;;;4918113;29;20055;-78
2022/10/23 11:00:22;;;;;;;19.95;6.00;;;;;;;;;;4917484;29;20123;-78
2022/10/23 11:02:51;;;;;;;17.90;6.55;;;;;;;;;;4917153;29;20043;-79
2022/10/23 11:05:36;;;;;;;14.10;5.82;;;;;;;;;;4916492;29;20078;-77
2022/10/23 11:08:26;;;;;;;23.98;6.80;;;;;;;;;;4917287;29;20036;-78
2022/10/23 11:11:01;;;;;;;14.68;5.82;;;;;;;;;;4917895;29;20048;-78
2022/10/23 11:13:39;;;;;;;16.23;4.97;;;;;;;;;;4916799;29;20052;-79
2022/10/23 11:16:20;;;;;;;17.42;5.47;;;;;;;;;;4917100;29;20515;-78
2022/10/23 11:18:51;;;;;;;19.48;5.80;;;;;;;;;;4909367;29;20048;-80
2022/10/23 11:21:30;;;;;;;20.17;5.60;;;;;;;;;;4916187;29;20123;-80
2022/10/23 11:24:15;;;;;;;16.17;5.93;;;;;;;;;;4916745;29;20456;-79
2022/10/23 11:26:50;;;;;;;24.30;6.53;;;;;;;;;;4916846;29;20044;-79
2022/10/23 11:29:17;;;;;;;14.32;4.95;;;;;;;;;;4917122;29;20047;-81
2022/10/23 11:32:02;;;;;;;21.70;5.95;;;;;;;;;;4931728;29;20404;-80
2022/10/23 11:34:47;;;;;;;14.65;5.43;;;;;;;;;;4915944;29;20048;-78
2022/10/23 11:37:17;;;;;;;15.55;5.40;;;;;;;;;;4916776;29;20062;-80
2022/10/23 11:39:56;;;;;;;17.65;5.95;;;;;;;;;;4916986;29;20130;-78
2022/10/23 11:42:40;;;;;;;16.20;5.50;;;;;;;;;;4917654;29;20142;-77
2022/10/23 11:45:36;;;;;;;18.08;5.65;;;;;;;;;;4915762;29;20036;-77
2022/10/23 11:48:03;;;;;;;19.95;5.32;;;;;;;;;;4906071;29;20512;-77
2022/10/23 11:50:31;;;;;;;18.98;5.65;;;;;;;;;;4928321;29;20071;-77
2022/10/23 11:53:09;;;;;;;18.42;5.80;;;;;;;;;;4906067;29;20040;-77
2022/10/23 11:55:35;;;;;;;20.40;6.07;;;;;;;;;;4916510;29;20058;-77
2022/10/23 11:58:05;;;;;;;18.42;6.40;;;;;;;;;;4917463;29;20047;-76
2022/10/23 12:00:32;;;;;;;20.38;6.30;;;;;;;;;;4916610;29;20144;-78
2022/10/23 12:02:59;;;;;;;15.68;5.28;;;;;;;;;;4916810;29;20144;-77
2022/10/23 12:05:34;;;;;;;22.25;6.43;;;;;;;;;;4913849;29;20107;-77
2022/10/23 12:08:01;;;;;;;14.90;5.75;;;;;;;;;;4917352;29;20043;-77
2022/10/23 12:10:35;;;;;;;20.95;6.45;;;;;;;;;;4917117;29;20044;-77
2022/10/23 12:13:03;;;;;;;20.33;6.07;;;;;;;;;;4916519;29;20143;-78
2022/10/23 12:15:30;;;;;;;21.02;6.30;;;;;;;;;;4916588;29;20495;-78
2022/10/23 12:18:16;;;;;;;22.08;6.35;;;;;;;;;;4916739;29;20046;-78
2022/10/23 12:20:48;;;;;;;20.92;6.32;;;;;;;;;;4916686;29;20044;-77
2022/10/23 12:23:22;;;;;;;25.30;7.05;;;;;;;;;;4917342;29;20187;-78
2022/10/23 12:26:07;;;;;;;16.48;6.05;;;;;;;;;;4915783;29;20040;-78
2022/10/23 12:28:36;;;;;;;19.83;6.53;;;;;;;;;;4910733;29;20123;-78
2022/10/23 12:31:21;;;;;;;27.98;7.07;;;;;;;;;;4920527;29;20040;-78
2022/10/23 12:33:53;;;;;;;24.10;6.45;;;;;;;;;;4919816;29;20078;-79
2022/10/23 12:36:22;;;;;;;21.25;6.18;;;;;;;;;;4919728;29;20076;-78
2022/10/23 12:38:48;;;;;;;26.00;7.03;;;;;;;;;;4919229;29;20036;-79
2022/10/23 12:41:23;;;;;;;26.33;6.78;;;;;;;;;;4920010;29;20087;-81
2022/10/23 12:43:53;;;;;;;22.08;6.95;;;;;;;;;;4920323;29;20044;-77
2022/10/23 12:46:22;;;;;;;20.08;6.60;;;;;;;;;;4918956;29;20067;-78
2022/10/23 12:48:52;;;;;;;28.83;7.25;;;;;;;;;;4920059;29;20495;-78
2022/10/23 12:51:25;;;;;;;20.73;6.00;;;;;;;;;;4920225;29;20087;-78
2022/10/23 12:53:51;;;;;;;21.15;6.63;;;;;;;;;;4918390;29;20496;-77
2022/10/23 12:56:18;;;;;;;27.95;6.63;;;;;;;;;;4912681;29;20059;-77
2022/10/23 12:58:51;;;;;;;28.00;7.05;;;;;;;;;;4919867;29;20527;-77
2022/10/23 13:01:22;;;;;;;23.77;6.70;;;;;;;;;;4919418;29;20369;-77
2022/10/23 13:03:49;;;;;;;28.23;7.20;;;;;;;;;;4918328;29;20048;-76
2022/10/23 13:06:15;;;;;;;28.13;7.10;;;;;;;;;;4919743;29;20036;-76
2022/10/23 13:08:43;;;;;;;24.52;7.10;;;;;;;;;;4919903;29;20044;-79
2022/10/23 13:11:13;;;;;;;17.65;6.57;;;;;;;;;;4919009;29;20075;-78
2022/10/23 13:13:40;;;;;;;23.60;7.00;;;;;;;;;;4919696;29;20055;-77
2022/10/23 13:16:20;;;;;;;23.10;6.93;;;;;;;;;;4916379;29;20099;-78
2022/10/23 13:18:47;;;;;;;21.48;6.40;;;;;;;;;;4918761;29;20043;-80
2022/10/23 13:21:33;;;;;;;23.17;7.75;;;;;;;;;;4919526;29;20123;-78
2022/10/23 13:23:59;;;;;;;19.65;6.43;;;;;;;;;;4919095;29;20048;-80
2022/10/23 13:26:31;;;;;;;27.23;7.57;;;;;;;;;;4919222;29;20044;-78
2022/10/23 13:28:58;;;;;;;22.75;6.78;;;;;;;;;;4919407;29;20040;-78
2022/10/23 13:31:25;;;;;;;20.67;7.07;;;;;;;;;;4919703;29;20051;-77
2022/10/23 13:34:01;;;;;;;21.88;7.07;;;;;;;;;;4917682;29;20048;-80
2022/10/23 13:36:28;;;;;;;25.55;7.78;;;;;;;;;;4918908;29;20075;-80
2022/10/23 13:39:02;;;;;;;20.83;7.60;;;;;;;;;;4915310;29;20519;-76
2022/10/23 13:41:30;;;;;;;25.17;7.35;;;;;;;;;;4918855;29;20139;-77
2022/10/23 13:43:56;;;;;;;23.00;7.47;;;;;;;;;;4919114;29;20092;-77
2022/10/23 13:46:24;;;;;;;27.13;8.20;;;;;;;;;;4918982;29;20052;-80
2022/10/23 13:48:51;;;;;;;29.38;7.90;;;;;;;;;;4918257;29;20040;-79
2022/10/23 13:51:20;;;;;;;20.92;7.25;;;;;;;;;;4918007;29;20048;-77
2022/10/23 13:53:46;;;;;;;25.10;7.70;;;;;;;;;;4917108;29;20040;-78
2022/10/23 13:56:13;;;;;;;26.02;7.72;;;;;;;;;;4918232;29;20072;-78
2022/10/23 13:58:39;;;;;;;31.48;7.57;;;;;;;;;;4911649;29;20504;-76
2022/10/23 14:01:06;;;;;;;26.65;7.88;;;;;;;;;;4915478;29;20039;-79
2022/10/23 14:03:32;;;;;;;21.08;7.65;;;;;;;;;;4918650;29;20045;-78
2022/10/23 14:05:59;;;;;;;20.40;8.13;;;;;;;;;;4918429;29;20070;-80
2022/10/23 14:08:25;;;;;;;23.50;8.23;;;;;;;;;;4917653;29;20083;-78
2022/10/23 14:10:51;;;;;;;24.73;8.23;;;;;;;;;;4918562;29;20047;-77
2022/10/23 14:13:17;;;;;;;29.52;9.00;;;;;;;;;;4918181;29;20094;-79
2022/10/23 14:15:43;;;;;;;26.45;7.82;;;;;;;;;;4918724;29;20039;-79
2022/10/23 14:18:10;;;;;;;24.90;8.60;;;;;;;;;;4917417;29;20546;-79
2022/10/23 14:20:38;;;;;;;25.27;8.57;;;;;;;;;;4918968;29;20032;-78
2022/10/23 14:23:04;;;;;;;24.25;8.23;;;;;;;;;;4918646;29;20104;-78
2022/10/23 14:25:30;;;;;;;25.05;9.05;;;;;;;;;;4917853;29;20032;-78
2022/10/23 14:27:56;;;;;;;27.33;9.20;;;;;;;;;;4918793;29;20066;-79
2022/10/23 14:30:22;;;;;;;26.35;8.60;;;;;;;;;;4918711;29;20038;-78
2022/10/23 14:32:48;;;;;;;27.50;8.15;;;;;;;;;;4917121;29;20096;-78
2022/10/23 14:35:15;;;;;;;27.88;8.50;;;;;;;;;;4918736;29;20138;-78
2022/10/23 14:37:41;;;;;;;24.65;8.90;;;;;;;;;;4918116;29;20036;-76
2022/10/23 14:40:07;;;;;;;23.20;9.55;;;;;;;;;;4917528;29;20092;-77